createdAt,value
2023-03-26T00:02:15.623Z,2.13
2023-03-26T00:06:18.531Z,0.60
2023-03-26T00:10:15.674Z,0.76
2023-03-26T00:14:15.420Z,1.90
2023-03-26T00:18:15.554Z,0.82
2023-03-26T00:22:15.556Z,0.81
2023-03-26T00:26:15.228Z,0.73
2023-03-26T00:30:15.265Z,1.81
2023-03-26T00:34:15.187Z,1.72
2023-03-26T00:38:16.021Z,15.71
2023-03-26T00:42:26.031Z,68.44
2023-03-26T00:46:15.219Z,86.59
2023-03-26T00:50:15.627Z,39.03
2023-03-26T00:54:15.999Z,19.68
2023-03-26T00:58:17.587Z,12.11
2023-03-26T01:02:15.441Z,26.17
2023-03-26T01:06:15.436Z,2.68
2023-03-26T01:10:15.270Z,3.08
2023-03-26T01:14:15.323Z,3.49
2023-03-26T01:18:17.381Z,1.31
2023-03-26T01:22:15.583Z,1.63
2023-03-26T01:26:15.213Z,0.81
2023-03-26T01:30:15.347Z,0.93
2023-03-26T01:34:15.240Z,0.78
2023-03-26T01:38:15.389Z,1.00
2023-03-26T01:42:15.198Z,1.66
2023-03-26T01:46:15.193Z,1.24
2023-03-26T01:50:15.051Z,1.57
2023-03-26T01:54:14.993Z,1.49
2023-03-26T01:58:14.955Z,1.92
2023-03-26T02:02:15.023Z,2.04
2023-03-26T02:06:15.073Z,2.22
2023-03-26T02:10:15.183Z,2.54
2023-03-26T02:14:15.059Z,2.76
2023-03-26T02:18:16.063Z,12.00
2023-03-26T02:22:15.655Z,10.48
2023-03-26T02:26:15.449Z,26.84
2023-03-26T02:30:16.307Z,221.04
2023-03-26T02:34:16.108Z,1000.00
2023-03-26T02:38:16.609Z,1000.00
2023-03-26T02:42:17.086Z,399.09
2023-03-26T02:46:16.638Z,230.91
2023-03-26T02:50:16.611Z,235.61
2023-03-26T02:54:16.177Z,136.68
2023-03-26T02:58:16.064Z,201.71
2023-03-26T03:02:17.743Z,423.84
2023-03-26T03:06:16.193Z,393.42
2023-03-26T03:10:15.987Z,375.45
2023-03-26T03:14:16.229Z,578.03
2023-03-26T03:18:16.320Z,278.50
2023-03-26T03:22:16.216Z,360.56
2023-03-26T03:26:16.317Z,501.77
2023-03-26T03:30:16.611Z,604.67
2023-03-26T03:34:16.337Z,609.92
2023-03-26T03:38:16.242Z,236.23
2023-03-26T03:42:16.360Z,145.41
2023-03-26T03:46:16.761Z,192.68
2023-03-26T03:50:16.442Z,243.13
2023-03-26T03:54:16.613Z,240.72
2023-03-26T03:58:16.483Z,366.22
2023-03-26T04:02:16.636Z,469.26
2023-03-26T04:06:16.648Z,613.11
2023-03-26T04:10:16.655Z,728.53
2023-03-26T04:14:16.801Z,1000.00
2023-03-26T04:18:16.959Z,688.94
2023-03-26T04:22:17.149Z,561.39
2023-03-26T04:26:17.085Z,768.36
2023-03-26T04:30:17.631Z,898.00
2023-03-26T04:34:17.307Z,360.11
2023-03-26T04:38:17.402Z,380.67
2023-03-26T04:42:17.663Z,235.42
2023-03-26T04:46:17.626Z,395.24
2023-03-26T04:50:17.725Z,612.18
2023-03-26T04:54:17.876Z,65.24
2023-03-26T04:58:18.007Z,21.55
2023-03-26T05:02:18.110Z,7.07
2023-03-26T05:06:18.137Z,10.72
2023-03-26T05:10:18.288Z,69.02
2023-03-26T05:14:18.417Z,410.69
2023-03-26T05:18:18.638Z,522.57
2023-03-26T05:22:19.067Z,424.96
2023-03-26T05:26:19.126Z,569.66
2023-03-26T05:30:19.021Z,923.24
2023-03-26T05:34:19.035Z,1000.00
2023-03-26T05:38:19.110Z,1000.00
2023-03-26T05:42:19.761Z,1000.00
2023-03-26T05:46:19.775Z,891.73
2023-03-26T05:50:19.744Z,957.65
2023-03-26T05:54:20.076Z,832.68
2023-03-26T05:58:20.014Z,664.78
2023-03-26T06:02:20.699Z,253.97
2023-03-26T06:06:20.444Z,266.41
2023-03-26T06:10:20.467Z,268.73
2023-03-26T06:14:20.521Z,228.23
2023-03-26T06:18:21.205Z,263.06
2023-03-26T06:22:20.787Z,171.88
2023-03-26T06:26:20.884Z,83.23
2023-03-26T06:30:20.982Z,63.06
2023-03-26T06:34:21.662Z,101.44
2023-03-26T06:38:21.257Z,136.76
2023-03-26T06:42:21.369Z,103.12
2023-03-26T06:46:22.438Z,88.71
2023-03-26T06:50:21.237Z,129.60
2023-03-26T06:54:21.249Z,70.03
2023-03-26T06:58:21.581Z,50.42
2023-03-26T07:02:21.624Z,37.12
2023-03-26T07:06:21.654Z,36.51
2023-03-26T07:10:21.799Z,19.22
2023-03-26T07:14:22.144Z,11.43
2023-03-26T07:18:22.022Z,16.48
2023-03-26T07:22:22.438Z,12.54
2023-03-26T07:26:21.811Z,11.52
2023-03-26T07:30:21.929Z,5.69
2023-03-26T07:34:22.205Z,4.09
2023-03-26T07:38:22.059Z,4.25
2023-03-26T07:42:22.130Z,3.71
2023-03-26T07:50:52.491Z,0.50
2023-03-26T07:54:42.060Z,0.50
2023-03-26T07:58:42.332Z,0.59
2023-03-26T08:02:41.984Z,1.17
2023-03-26T08:11:01.669Z,0.50
2023-03-26T08:15:01.609Z,0.51
2023-03-26T08:19:01.581Z,0.60
2023-03-26T08:23:01.534Z,0.63
2023-03-26T08:27:01.509Z,0.50
2023-03-26T08:31:01.560Z,0.34
2023-03-26T08:35:01.436Z,0.34
2023-03-26T08:39:01.405Z,0.72
2023-03-26T08:43:01.711Z,0.68
2023-03-26T08:47:02.122Z,1.92
2023-03-26T08:51:01.595Z,0.98
2023-03-26T08:55:01.634Z,0.44
2023-03-26T08:59:01.458Z,0.76
2023-03-26T09:03:01.512Z,0.79
2023-03-26T09:07:01.274Z,0.90
2023-03-26T09:11:01.400Z,1.10
2023-03-26T09:15:01.405Z,0.94
2023-03-26T09:19:01.376Z,1.01
2023-03-26T09:23:01.241Z,1.25
2023-03-26T09:27:01.464Z,1.13
2023-03-26T09:31:01.450Z,1.32
2023-03-26T09:35:01.223Z,1.03
2023-03-26T09:39:01.099Z,1.31
2023-03-26T09:43:01.062Z,2.21
2023-03-26T09:47:01.468Z,3.13
2023-03-26T09:51:00.996Z,1.86
2023-03-26T09:55:01.475Z,2.69
2023-03-26T09:59:01.002Z,0.70
2023-03-26T10:03:00.949Z,0.70
2023-03-26T10:07:00.887Z,0.97
2023-03-26T10:11:00.987Z,1.96
2023-03-26T10:15:00.742Z,2.58
2023-03-26T10:19:00.927Z,1.24
2023-03-26T10:23:00.975Z,1.37
2023-03-26T10:27:08.767Z,2.23
2023-03-26T10:31:02.200Z,1.63
2023-03-26T10:35:01.332Z,1.31
2023-03-26T10:39:01.429Z,2.03
2023-03-26T10:43:01.598Z,2.16
2023-03-26T10:47:02.013Z,1.88
2023-03-26T10:51:01.738Z,3.38
2023-03-26T10:55:01.723Z,8.38
2023-03-26T10:59:01.698Z,1.35
2023-03-26T11:03:01.630Z,1.07
2023-03-26T11:07:02.772Z,2.63
2023-03-26T11:11:01.594Z,2.82
2023-03-26T11:19:21.665Z,0.50
2023-03-26T11:23:21.462Z,0.61
2023-03-26T11:27:23.750Z,0.55
2023-03-26T11:31:21.363Z,0.64
2023-03-26T11:35:40.639Z,0.78
2023-03-26T11:39:22.097Z,0.85
2023-03-26T11:43:21.533Z,0.67
2023-03-26T11:47:21.201Z,0.76
2023-03-26T11:51:21.391Z,0.72
2023-03-26T11:55:21.518Z,0.49
2023-03-26T11:59:22.002Z,0.55
2023-03-26T12:03:21.683Z,0.53
2023-03-26T12:07:21.641Z,0.92
2023-03-26T12:11:21.611Z,0.93
2023-03-26T12:15:21.502Z,1.41
2023-03-26T12:19:21.511Z,1.68
2023-03-26T12:23:21.556Z,1.63
2023-03-26T12:27:21.420Z,2.00
2023-03-26T12:31:21.441Z,1.79
2023-03-26T12:35:21.515Z,1.09
2023-03-26T12:40:07.770Z,0.77
2023-03-26T12:44:53.051Z,0.91
2023-03-26T12:47:59.882Z,1.80
2023-03-26T12:51:22.318Z,0.80
2023-03-26T12:55:21.321Z,1.23
2023-03-26T12:59:34.511Z,2.08
2023-03-26T13:03:32.045Z,1.90
2023-03-26T13:07:21.079Z,2.32
2023-03-26T13:11:21.076Z,0.74
2023-03-26T13:15:21.050Z,1.81
2023-03-26T13:19:20.978Z,3.47
2023-03-26T13:23:20.975Z,1.21
2023-03-26T13:27:20.961Z,0.73
2023-03-26T13:31:21.317Z,0.95
2023-03-26T13:35:21.484Z,2.24
2023-03-26T13:39:21.598Z,2.87
2023-03-26T13:43:22.366Z,3.85
2023-03-26T13:47:22.075Z,2.90
2023-03-26T13:51:22.220Z,4.46
2023-03-26T13:55:22.239Z,2.67
2023-03-26T13:59:22.374Z,1.47
2023-03-26T14:03:21.943Z,6.64
2023-03-26T14:07:21.885Z,3.01
2023-03-26T14:11:21.936Z,3.55
2023-03-26T14:15:21.876Z,3.45
2023-03-26T14:19:21.707Z,3.72
2023-03-26T14:23:21.801Z,3.58
2023-03-26T14:27:22.112Z,2.90
2023-03-26T14:31:21.660Z,12.81
2023-03-26T14:35:21.885Z,16.87
2023-03-26T14:39:21.792Z,20.91
2023-03-26T14:43:21.793Z,35.68
2023-03-26T14:47:22.279Z,38.07
2023-03-26T15:00:01.481Z,0.50
2023-03-26T15:04:01.321Z,0.36
2023-03-26T15:08:01.293Z,0.46
2023-03-26T15:12:13.193Z,0.70
2023-03-26T15:16:02.278Z,0.46
2023-03-26T15:20:01.712Z,0.53
2023-03-26T15:24:01.705Z,0.98
2023-03-26T15:28:01.191Z,1.33
2023-03-26T15:32:01.890Z,1.24
2023-03-26T15:36:01.265Z,0.89
2023-03-26T15:40:01.672Z,1.21
2023-03-26T15:44:23.310Z,0.83
2023-03-26T15:48:02.654Z,0.99
2023-03-26T15:52:01.629Z,1.22
2023-03-26T15:56:01.053Z,2.34
2023-03-26T16:00:01.090Z,2.86
2023-03-26T16:04:01.040Z,3.36
2023-03-26T16:08:01.128Z,4.33
2023-03-26T16:12:01.589Z,4.30
2023-03-26T16:16:01.490Z,4.83
2023-03-26T16:20:01.704Z,7.89
2023-03-26T16:24:01.585Z,11.08
2023-03-26T16:28:02.171Z,9.38
2023-03-26T16:32:01.933Z,4.68
2023-03-26T16:36:02.444Z,2.53
2023-03-26T16:40:02.214Z,2.92
2023-03-26T16:44:02.632Z,2.55
2023-03-26T16:48:02.575Z,3.18
2023-03-26T16:52:03.135Z,4.70
2023-03-26T16:56:03.121Z,6.81
2023-03-26T17:00:06.335Z,4.18
2023-03-26T17:04:03.166Z,4.77
2023-03-26T17:08:03.179Z,5.05
2023-03-26T17:12:03.150Z,6.88
2023-03-26T17:16:02.718Z,6.01
2023-03-26T17:20:02.751Z,3.71
2023-03-26T17:24:02.765Z,4.23
2023-03-26T17:28:03.136Z,4.35
2023-03-26T17:32:02.695Z,6.63
2023-03-26T17:36:02.695Z,9.33
2023-03-26T17:40:02.596Z,8.95
2023-03-26T17:44:02.578Z,9.13
2023-03-26T17:48:02.655Z,11.57
2023-03-26T17:52:02.493Z,13.86
2023-03-26T17:56:02.448Z,19.02
2023-03-26T18:00:02.430Z,7.63
2023-03-26T18:04:02.631Z,5.43
2023-03-26T18:08:02.358Z,6.67
2023-03-26T18:12:02.333Z,5.60
2023-03-26T18:16:02.394Z,4.06
2023-03-26T18:20:02.425Z,4.25
2023-03-26T18:24:02.504Z,8.56
2023-03-26T18:28:02.906Z,8.09
2023-03-26T18:32:12.322Z,13.64
2023-03-26T18:36:02.225Z,9.75
2023-03-26T18:40:02.208Z,7.04
2023-03-26T18:44:02.181Z,12.84
2023-03-26T18:48:02.334Z,8.53
2023-03-26T18:52:02.094Z,8.82
2023-03-26T18:56:02.218Z,5.03
2023-03-26T19:00:02.215Z,3.31
2023-03-26T19:04:02.726Z,3.38
2023-03-26T19:08:02.667Z,4.91
2023-03-26T19:12:02.824Z,3.79
2023-03-26T19:16:03.153Z,4.38
2023-03-26T19:20:03.200Z,11.84
2023-03-26T19:24:03.400Z,9.24
2023-03-26T19:28:04.286Z,7.13
2023-03-26T19:32:03.797Z,4.54
2023-03-26T19:36:04.186Z,3.49
2023-03-26T19:40:04.282Z,1.00
2023-03-26T19:44:04.673Z,1.36
2023-03-26T19:48:14.147Z,2.97
2023-03-26T19:52:05.746Z,3.34
2023-03-26T19:56:05.948Z,3.56
2023-03-26T20:00:04.492Z,2.72
2023-03-26T20:04:04.815Z,2.73
2023-03-26T20:08:04.320Z,4.75
2023-03-26T20:12:04.671Z,5.71
2023-03-26T20:16:04.819Z,5.13
2023-03-26T20:20:04.793Z,11.85
2023-03-26T20:24:04.428Z,6.88
2023-03-26T20:28:04.390Z,4.79
2023-03-26T20:32:04.781Z,5.23
2023-03-26T20:36:04.725Z,5.95
2023-03-26T20:40:04.312Z,3.91
2023-03-26T20:44:04.217Z,3.11
2023-03-26T20:48:04.205Z,2.55
2023-03-26T20:52:04.318Z,1.62
2023-03-26T20:56:04.309Z,1.76
2023-03-26T21:00:04.023Z,2.47
2023-03-26T21:04:03.990Z,2.26
2023-03-26T21:08:03.965Z,5.25
2023-03-26T21:12:04.203Z,10.44
2023-03-26T21:16:03.878Z,10.97
2023-03-26T21:20:03.847Z,9.02
2023-03-26T21:24:03.773Z,3.48
2023-03-26T21:28:03.819Z,5.98
2023-03-26T21:32:03.765Z,6.13
2023-03-26T21:36:03.953Z,4.55
2023-03-26T21:40:03.829Z,2.26
2023-03-26T21:44:04.083Z,5.33
2023-03-26T21:48:03.775Z,5.29
2023-03-26T21:52:03.915Z,7.33
2023-03-26T21:56:03.793Z,6.40
2023-03-26T22:00:03.946Z,2.88
2023-03-26T22:04:04.022Z,4.60
2023-03-26T22:08:03.850Z,7.38
2023-03-26T22:12:03.830Z,7.19
2023-03-26T22:16:03.874Z,8.76
2023-03-26T22:20:03.790Z,6.56
2023-03-26T22:24:03.913Z,5.55
2023-03-26T22:28:03.905Z,6.02
2023-03-26T22:32:15.810Z,5.51
2023-03-26T22:36:23.348Z,4.50
2023-03-26T22:40:23.600Z,0.50
2023-03-26T22:44:23.906Z,0.51
2023-03-26T22:48:23.530Z,0.50
2023-03-26T22:52:23.812Z,0.56
2023-03-26T22:56:23.891Z,0.62
2023-03-26T23:00:24.312Z,0.69
2023-03-26T23:04:30.322Z,0.40
2023-03-26T23:08:24.874Z,0.44
2023-03-26T23:12:23.807Z,0.62
2023-03-26T23:16:23.389Z,0.81
2023-03-26T23:20:23.385Z,0.34
2023-03-26T23:24:23.362Z,0.67
2023-03-26T23:28:23.494Z,1.32
2023-03-26T23:32:24.900Z,1.37
2023-03-26T23:36:23.702Z,1.64
2023-03-26T23:40:23.895Z,1.79
2023-03-26T23:44:23.921Z,1.86
2023-03-26T23:48:24.434Z,0.77
2023-03-26T23:52:24.342Z,0.99
2023-03-26T23:56:24.296Z,1.99
